Time;durP1;ratioP1;P1;durP2;ratioP2;P2;SDS_P1;SDS_P2;PMS_P1;PMS_P2;Temp;Humidity;BMP_temperature;BMP_pressure;BME280_temperature;BME280_humidity;BME280_pressure;Samples;Min_cycle;Max_cycle;Signal;HPM_P1;HPM_P2
2021/04/27 00:00:48;;;;;;;1999.90;999.90;;;16.50;99.90;;;;;;5031535;28;20167;-43
2021/04/27 00:03:16;;;;;;;1999.90;999.90;;;16.50;99.90;;;;;;5030600;28;20217;-44
2021/04/27 00:05:42;;;;;;;1999.90;999.90;;;16.50;99.90;;;;;;5031308;28;20182;-38
2021/04/27 00:08:09;;;;;;;1999.90;999.90;;;16.50;99.90;;;;;;5031384;28;20193;-44
2021/04/27 00:10:36;;;;;;;1999.90;999.90;;;16.50;99.90;;;;;;5031252;28;20213;-42
2021/04/27 00:13:03;;;;;;;1999.90;999.90;;;16.50;99.90;;;;;;5031379;28;20209;-41
2021/04/27 00:15:32;;;;;;;1999.90;999.90;;;16.50;99.90;;;;;;5031431;28;20667;-41
2021/04/27 00:17:59;;;;;;;1999.90;999.90;;;16.50;99.90;;;;;;5031403;28;20660;-41
2021/04/27 00:20:27;;;;;;;1999.90;999.90;;;16.50;99.90;;;;;;5031243;28;20180;-39
2021/04/27 00:22:55;;;;;;;1999.90;999.90;;;16.40;99.90;;;;;;5030892;28;20233;-41
2021/04/27 00:25:22;;;;;;;1999.90;999.90;;;16.50;99.90;;;;;;5031116;28;20178;-41
2021/04/27 00:27:51;;;;;;;1999.90;999.90;;;16.50;99.90;;;;;;5031030;28;20652;-42
2021/04/27 00:30:20;;;;;;;1999.90;999.90;;;16.50;99.90;;;;;;5031029;28;20177;-39
2021/04/27 00:32:47;;;;;;;1999.90;999.90;;;16.50;99.90;;;;;;5031036;28;20162;-41
2021/04/27 00:35:17;;;;;;;1999.90;999.90;;;16.50;99.90;;;;;;5030938;28;20174;-39
2021/04/27 00:37:44;;;;;;;1999.90;999.90;;;16.50;99.90;;;;;;5030870;28;20669;-43
2021/04/27 00:40:14;;;;;;;1999.90;999.90;;;16.50;99.90;;;;;;5030892;28;20162;-40
2021/04/27 00:42:45;;;;;;;1999.90;999.90;;;16.50;99.90;;;;;;5030882;28;20218;-43
2021/04/27 00:45:17;;;;;;;1999.90;999.90;;;16.50;99.90;;;;;;5030866;28;20172;-43
2021/04/27 00:47:44;;;;;;;1999.90;999.90;;;16.50;99.90;;;;;;5030751;28;20194;-44
2021/04/27 00:50:14;;;;;;;1999.90;999.90;;;16.40;99.90;;;;;;5030787;28;20193;-40
2021/04/27 00:52:45;;;;;;;1999.90;999.90;;;16.50;99.90;;;;;;5030717;28;20245;-42
2021/04/27 00:55:13;;;;;;;1999.90;999.90;;;16.40;99.90;;;;;;5030734;28;20157;-43
2021/04/27 00:57:40;;;;;;;1999.90;999.90;;;16.40;99.90;;;;;;5030667;28;20162;-43
2021/04/27 01:00:10;;;;;;;1999.90;999.90;;;16.40;99.90;;;;;;5030629;28;20173;-45
2021/04/27 01:02:38;;;;;;;1999.90;999.90;;;16.40;99.90;;;;;;5030581;28;20165;-43
2021/04/27 01:05:11;;;;;;;1999.90;999.90;;;16.40;99.90;;;;;;5030594;28;20192;-44
2021/04/27 01:08:01;;;;;;;1999.90;999.90;;;16.40;99.90;;;;;;5030489;28;20285;-45
2021/04/27 01:10:41;;;;;;;1999.90;999.90;;;16.50;99.90;;;;;;5030335;28;20186;-45
2021/04/27 01:13:15;;;;;;;1999.90;999.90;;;16.50;99.90;;;;;;5030577;28;20582;-41
2021/04/27 01:15:43;;;;;;;1999.90;999.90;;;16.50;99.90;;;;;;5030168;28;20207;-44
2021/04/27 01:18:11;;;;;;;1999.90;999.90;;;16.50;99.90;;;;;;5030426;28;20652;-42
2021/04/27 01:20:48;;;;;;;1999.90;999.90;;;16.50;99.90;;;;;;5030303;28;20647;-42
2021/04/27 01:23:23;;;;;;;1999.90;999.90;;;16.50;99.90;;;;;;5030400;28;20173;-44
2021/04/27 01:26:16;;;;;;;1999.90;999.90;;;16.50;99.90;;;;;;5030274;28;20637;-41
2021/04/27 01:28:43;;;;;;;1999.90;999.90;;;16.50;99.90;;;;;;5030183;28;20209;-40
2021/04/27 01:31:11;;;;;;;1999.90;999.90;;;16.50;99.90;;;;;;5030185;28;20201;-41
2021/04/27 01:33:39;;;;;;;1999.90;999.90;;;16.50;99.90;;;;;;5030301;28;20624;-45
2021/04/27 01:36:07;;;;;;;1999.90;999.90;;;16.50;99.90;;;;;;5030241;28;20632;-40
2021/04/27 01:38:34;;;;;;;1999.90;999.90;;;16.50;99.90;;;;;;5030189;28;20217;-42
2021/04/27 01:41:02;;;;;;;1999.90;999.90;;;16.50;99.90;;;;;;5030034;28;20166;-42
2021/04/27 01:43:30;;;;;;;1999.90;999.90;;;16.50;99.90;;;;;;5030034;28;20656;-41
2021/04/27 01:46:00;;;;;;;1999.90;999.90;;;16.50;99.90;;;;;;5029994;28;20165;-41
2021/04/27 01:48:28;;;;;;;1999.90;999.90;;;16.50;99.90;;;;;;5029949;28;20198;-44
2021/04/27 01:50:55;;;;;;;1999.90;999.90;;;16.50;99.90;;;;;;5029938;28;20249;-47
2021/04/27 01:53:23;;;;;;;1999.90;999.90;;;16.50;99.90;;;;;;5029873;28;20181;-44
2021/04/27 01:55:50;;;;;;;1999.90;999.90;;;16.50;99.90;;;;;;5029869;28;20632;-44
2021/04/27 01:58:18;;;;;;;1999.90;999.90;;;16.60;99.90;;;;;;5029707;28;20185;-47
2021/04/27 02:00:45;;;;;;;1999.90;999.90;;;16.50;99.90;;;;;;5028693;28;20175;-46
2021/04/27 02:03:12;;;;;;;1999.90;999.90;;;16.60;99.90;;;;;;5029807;28;20637;-45
2021/04/27 02:05:39;;;;;;;1999.90;999.90;;;16.60;99.90;;;;;;5029978;28;20218;-43
2021/04/27 02:08:06;;;;;;;1999.90;999.90;;;16.60;99.90;;;;;;5029822;28;20209;-46
2021/04/27 02:10:34;;;;;;;1999.90;999.90;;;16.60;99.90;;;;;;5029633;28;20174;-44
2021/04/27 02:13:06;;;;;;;1999.90;999.90;;;16.60;99.90;;;;;;5029750;28;20162;-44
2021/04/27 02:15:34;;;;;;;1999.90;999.90;;;16.60;99.90;;;;;;5029986;28;20496;-46
2021/04/27 02:18:25;;;;;;;1999.90;999.90;;;16.60;99.90;;;;;;5029597;28;20637;-44
2021/04/27 02:20:54;;;;;;;1999.90;999.90;;;16.60;99.90;;;;;;5029351;28;20166;-41
2021/04/27 02:23:21;;;;;;;1999.90;999.90;;;16.60;99.90;;;;;;5029657;28;20190;-46
2021/04/27 02:25:51;;;;;;;1999.90;999.90;;;16.70;99.90;;;;;;5029509;28;20178;-41
2021/04/27 02:28:19;;;;;;;1999.90;999.90;;;16.60;99.90;;;;;;5032861;28;20289;-43
2021/04/27 02:30:47;;;;;;;1999.90;999.90;;;16.60;99.90;;;;;;5032966;28;20174;-43
2021/04/27 02:33:17;;;;;;;1999.90;999.90;;;16.70;99.90;;;;;;5032870;28;20190;-43
2021/04/27 02:35:44;;;;;;;1999.90;999.90;;;16.70;99.90;;;;;;5032877;28;20166;-42
2021/04/27 02:38:11;;;;;;;1999.90;999.90;;;16.70;99.90;;;;;;5032954;28;20173;-43
2021/04/27 02:40:39;;;;;;;1999.90;999.90;;;16.70;99.90;;;;;;5032728;28;20526;-45
2021/04/27 02:43:06;;;;;;;1999.90;999.90;;;16.70;99.90;;;;;;5032730;28;20177;-43
2021/04/27 02:45:32;;;;;;;1999.90;999.90;;;16.70;99.90;;;;;;5032738;28;20686;-43
2021/04/27 02:48:15;;;;;;;1999.90;999.90;;;16.70;99.90;;;;;;5032557;28;20205;-41
2021/04/27 02:50:45;;;;;;;1999.90;999.90;;;16.70;99.90;;;;;;5032956;28;20166;-43
2021/04/27 02:53:15;;;;;;;1999.90;999.90;;;16.70;99.90;;;;;;5032736;28;20162;-44
2021/04/27 02:55:43;;;;;;;1999.90;999.90;;;16.70;99.90;;;;;;5032685;28;20169;-42
2021/04/27 02:58:11;;;;;;;1999.90;999.90;;;16.70;99.90;;;;;;5032580;28;20254;-44
2021/04/27 03:00:39;;;;;;;1999.90;999.90;;;16.70;99.90;;;;;;5032493;28;20651;-46
2021/04/27 03:03:06;;;;;;;1999.90;999.90;;;16.70;99.90;;;;;;5032447;28;20166;-45
2021/04/27 03:05:33;;;;;;;1999.90;999.90;;;16.70;99.90;;;;;;5032350;28;20234;-43
2021/04/27 03:08:00;;;;;;;1999.90;999.90;;;16.70;99.90;;;;;;5032340;28;20202;-42
2021/04/27 03:10:27;;;;;;;1999.90;999.90;;;16.70;99.90;;;;;;5032289;28;20693;-44
2021/04/27 03:12:55;;;;;;;1999.90;999.90;;;16.70;99.90;;;;;;5032275;28;20174;-44
2021/04/27 03:15:22;;;;;;;1999.90;999.90;;;16.70;99.90;;;;;;5032214;28;20174;-44
2021/04/27 03:17:48;;;;;;;1999.90;999.90;;;16.70;99.90;;;;;;5032245;28;20178;-46
2021/04/27 03:20:16;;;;;;;1999.90;999.90;;;16.70;99.90;;;;;;5032313;28;20173;-45
2021/04/27 03:22:43;;;;;;;1999.90;999.90;;;16.60;99.90;;;;;;5032203;28;20249;-47
2021/04/27 03:25:13;;;;;;;1999.90;999.90;;;16.60;99.90;;;;;;5030925;28;20580;-44
2021/04/27 03:27:40;;;;;;;1999.90;999.90;;;16.60;99.90;;;;;;5030769;28;20209;-44
2021/04/27 03:30:09;;;;;;;1999.90;999.90;;;16.60;99.90;;;;;;5032097;28;20530;-42
2021/04/27 03:32:37;;;;;;;1999.90;999.90;;;16.60;99.90;;;;;;5032204;28;20260;-45
2021/04/27 03:35:06;;;;;;;1999.90;999.90;;;16.50;99.90;;;;;;5031915;28;20189;-41
2021/04/27 03:37:33;;;;;;;1999.90;999.90;;;16.40;99.90;;;;;;5031345;28;20171;-44
2021/04/27 03:40:00;;;;;;;1999.90;999.90;;;16.30;99.90;;;;;;5031206;28;20637;-44
2021/04/27 03:42:27;;;;;;;1999.90;999.90;;;16.30;99.90;;;;;;5031831;28;20173;-41
2021/04/27 03:44:54;;;;;;;1999.90;999.90;;;16.30;99.90;;;;;;5031774;28;20177;-42
2021/04/27 03:47:21;;;;;;;1999.90;999.90;;;16.30;99.90;;;;;;5031870;28;20206;-43
2021/04/27 03:49:48;;;;;;;1999.90;999.90;;;16.30;99.90;;;;;;5031862;28;20193;-44
2021/04/27 03:52:15;;;;;;;1999.90;999.90;;;16.30;99.90;;;;;;5031773;28;20174;-43
2021/04/27 03:54:42;;;;;;;1999.90;999.90;;;16.20;99.90;;;;;;5031727;28;20558;-45
2021/04/27 03:57:08;;;;;;;1999.90;999.90;;;16.30;99.90;;;;;;5031639;28;20204;-40
2021/04/27 03:59:35;;;;;;;1999.90;999.90;;;16.20;99.90;;;;;;5031656;28;20170;-45
2021/04/27 04:02:02;;;;;;;1999.90;999.90;;;16.20;99.90;;;;;;5031586;28;20537;-44
2021/04/27 04:04:29;;;;;;;1999.90;999.90;;;16.20;99.90;;;;;;5031495;28;20215;-46
2021/04/27 04:06:56;;;;;;;1999.90;999.90;;;16.20;99.90;;;;;;5031433;28;20598;-48
2021/04/27 04:09:23;;;;;;;1999.90;999.90;;;16.20;99.90;;;;;;5031487;28;20174;-45
2021/04/27 04:11:50;;;;;;;1999.90;999.90;;;16.20;99.90;;;;;;5031534;28;20263;-46
2021/04/27 04:14:17;;;;;;;1999.90;999.90;;;16.20;99.90;;;;;;5031516;28;20174;-43
2021/04/27 04:16:43;;;;;;;1999.90;999.90;;;16.20;99.90;;;;;;5031548;28;20523;-45
2021/04/27 04:19:10;;;;;;;1999.90;999.90;;;16.20;99.90;;;;;;5031350;28;20177;-45
2021/04/27 04:21:38;;;;;;;1999.90;999.90;;;16.20;99.90;;;;;;5031037;28;20209;-45
2021/04/27 04:24:05;;;;;;;1999.90;999.90;;;16.20;99.90;;;;;;5031233;28;20655;-42
2021/04/27 04:26:32;;;;;;;1999.90;999.90;;;16.20;99.90;;;;;;5031160;28;20177;-42
2021/04/27 04:28:59;;;;;;;1999.90;999.90;;;16.30;99.90;;;;;;5031036;28;20561;-42
2021/04/27 04:31:26;;;;;;;1999.90;999.90;;;16.30;99.90;;;;;;5031137;28;20170;-42
2021/04/27 04:33:53;;;;;;;1999.90;999.90;;;16.30;99.90;;;;;;5031206;28;20174;-42
2021/04/27 04:36:20;;;;;;;1999.90;999.90;;;16.30;99.90;;;;;;5031102;28;20694;-43
2021/04/27 04:38:47;;;;;;;1999.90;999.90;;;16.30;99.90;;;;;;5030919;28;20178;-43
2021/04/27 04:41:14;;;;;;;1999.90;999.90;;;16.30;99.90;;;;;;5030828;28;20679;-42
2021/04/27 04:43:41;;;;;;;1999.90;999.90;;;16.30;99.90;;;;;;5031225;28;20527;-41
2021/04/27 04:46:07;;;;;;;1999.90;999.90;;;16.30;99.90;;;;;;5031153;28;20565;-44
2021/04/27 04:48:34;;;;;;;1999.90;999.90;;;16.30;99.90;;;;;;5030769;28;20212;-45
2021/04/27 04:51:02;;;;;;;1999.90;999.90;;;16.30;99.90;;;;;;5030328;28;20173;-44
2021/04/27 04:53:28;;;;;;;1999.90;999.90;;;16.30;99.90;;;;;;5030750;28;20235;-43
2021/04/27 04:55:55;;;;;;;1999.90;999.90;;;16.30;99.90;;;;;;5030727;28;20174;-42
2021/04/27 04:58:23;;;;;;;1999.90;999.90;;;16.30;99.90;;;;;;5030741;28;20174;-43
2021/04/27 05:00:50;;;;;;;1999.90;999.90;;;16.30;99.90;;;;;;5030688;28;20652;-44
2021/04/27 05:03:17;;;;;;;1999.90;999.90;;;16.30;99.90;;;;;;5030559;28;20249;-44
2021/04/27 05:05:44;;;;;;;1999.90;999.90;;;16.30;99.90;;;;;;5030569;28;20172;-45
2021/04/27 05:08:34;;;;;;;1999.90;999.90;;;16.30;99.90;;;;;;5030464;28;20285;-45
2021/04/27 05:10:58;;;;;;;1999.90;999.90;;;16.30;99.90;;;;;;5030014;28;20272;-45
2021/04/27 05:13:25;;;;;;;1999.90;999.90;;;16.30;99.90;;;;;;5030535;28;20205;-44
2021/04/27 05:15:52;;;;;;;1999.90;999.90;;;16.20;99.90;;;;;;5030525;28;20313;-45
2021/04/27 05:18:19;;;;;;;1999.90;999.90;;;16.20;99.90;;;;;;5030440;28;20170;-44
2021/04/27 05:20:46;;;;;;;1999.90;999.90;;;16.30;99.90;;;;;;5030236;28;20538;-41
2021/04/27 05:23:14;;;;;;;1999.90;999.90;;;16.20;99.90;;;;;;4989812;28;20191;-43
2021/04/27 05:25:41;;;;;;;1999.90;999.90;;;16.20;99.90;;;;;;4991014;28;20167;-44
2021/04/27 05:28:07;;;;;;;1999.90;999.90;;;16.30;99.90;;;;;;4990918;28;20210;-45
2021/04/27 05:30:34;;;;;;;1999.90;999.90;;;16.30;99.90;;;;;;4990967;28;20199;-44
2021/04/27 05:33:01;;;;;;;1999.90;999.90;;;16.30;99.90;;;;;;4990922;28;20258;-44
2021/04/27 05:35:28;;;;;;;1999.90;999.90;;;16.30;99.90;;;;;;4990896;28;20167;-39
2021/04/27 05:37:55;;;;;;;1999.90;999.90;;;16.20;99.90;;;;;;4990978;28;20262;-45
2021/04/27 05:40:22;;;;;;;1999.90;999.90;;;16.20;99.90;;;;;;4990776;28;20644;-46
2021/04/27 05:42:48;;;;;;;1999.90;999.90;;;16.20;99.90;;;;;;4990826;28;20178;-44
2021/04/27 05:45:15;;;;;;;1999.90;999.90;;;16.20;99.90;;;;;;4990747;28;20312;-45
2021/04/27 05:47:42;;;;;;;1999.90;999.90;;;16.10;99.90;;;;;;4990704;28;20234;-44
2021/04/27 05:50:10;;;;;;;1999.90;999.90;;;16.20;99.90;;;;;;4990681;28;20240;-45
2021/04/27 05:52:37;;;;;;;1999.90;999.90;;;16.20;99.90;;;;;;4990686;28;20163;-45
2021/04/27 05:55:04;;;;;;;1999.90;999.90;;;16.20;99.90;;;;;;4990610;28;20209;-44
2021/04/27 05:57:31;;;;;;;1999.90;999.90;;;16.10;99.90;;;;;;4990643;28;20171;-45
2021/04/27 05:59:58;;;;;;;1999.90;999.90;;;16.10;99.90;;;;;;4990745;28;20167;-46
2021/04/27 06:02:25;;;;;;;1999.90;999.90;;;16.20;99.90;;;;;;4992615;28;20201;-43
2021/04/27 06:04:53;;;;;;;1999.90;999.90;;;16.10;99.90;;;;;;4994067;28;20167;-40
2021/04/27 06:07:20;;;;;;;1999.90;999.90;;;16.20;99.90;;;;;;4993908;28;20190;-42
2021/04/27 06:09:48;;;;;;;1999.90;999.90;;;16.20;99.90;;;;;;4993962;28;20183;-44
2021/04/27 06:12:14;;;;;;;1999.90;999.90;;;16.20;99.90;;;;;;4993979;28;20187;-44
2021/04/27 06:14:41;;;;;;;1999.90;999.90;;;16.30;99.90;;;;;;4994087;28;20171;-42
2021/04/27 06:17:08;;;;;;;1999.90;999.90;;;16.30;99.90;;;;;;4993913;28;20183;-45
2021/04/27 06:19:35;;;;;;;1999.90;999.90;;;16.20;99.90;;;;;;4993842;28;20188;-43
2021/04/27 06:22:02;;;;;;;1999.90;999.90;;;16.20;99.90;;;;;;5014060;28;20264;-39
2021/04/27 06:24:29;;;;;;;1999.90;999.90;;;16.20;99.90;;;;;;5033220;28;20162;-43
2021/04/27 06:26:56;;;;;;;1999.90;999.90;;;16.30;99.90;;;;;;5032936;28;20194;-45
2021/04/27 06:29:23;;;;;;;1999.90;999.90;;;16.30;99.90;;;;;;5032898;28;20181;-41
2021/04/27 06:31:50;;;;;;;1999.90;999.90;;;16.30;99.90;;;;;;5032852;28;20162;-45
2021/04/27 06:34:17;;;;;;;1999.90;999.90;;;16.30;99.90;;;;;;5032945;28;20166;-42
2021/04/27 06:36:44;;;;;;;1999.90;999.90;;;16.30;99.90;;;;;;5032844;28;20178;-45
2021/04/27 06:39:11;;;;;;;1999.90;999.90;;;16.30;99.90;;;;;;5032749;28;20521;-43
2021/04/27 06:41:37;;;;;;;1999.90;999.90;;;16.30;99.90;;;;;;5032712;28;20575;-44
2021/04/27 06:44:05;;;;;;;1999.90;999.90;;;16.40;99.90;;;;;;5032638;28;20256;-43
2021/04/27 06:46:32;;;;;;;1999.90;999.90;;;16.40;99.90;;;;;;5032786;28;20170;-44
2021/04/27 06:48:59;;;;;;;1999.90;999.90;;;16.40;99.90;;;;;;5032568;28;20213;-43
2021/04/27 06:51:27;;;;;;;1999.90;999.90;;;16.40;99.90;;;;;;5032413;28;20574;-43
2021/04/27 06:53:54;;;;;;;1999.90;999.90;;;16.50;99.90;;;;;;5032372;28;20659;-43
2021/04/27 06:56:21;;;;;;;1999.90;999.90;;;16.40;99.90;;;;;;5032266;28;20166;-42
2021/04/27 06:58:48;;;;;;;1999.90;999.90;;;16.40;99.90;;;;;;5032271;28;20245;-42
2021/04/27 07:01:15;;;;;;;1999.90;999.90;;;16.40;99.90;;;;;;5032093;28;20182;-45
2021/04/27 07:03:47;;;;;;;1999.90;999.90;;;16.50;99.90;;;;;;5032184;28;20534;-43
2021/04/27 07:06:14;;;;;;;1999.90;999.90;;;16.50;99.90;;;;;;5032069;28;20174;-42
2021/04/27 07:08:42;;;;;;;1999.90;999.90;;;16.50;99.90;;;;;;5031966;28;20198;-43
2021/04/27 07:11:10;;;;;;;1999.90;999.90;;;16.50;99.90;;;;;;5032127;28;20166;-43
2021/04/27 07:13:37;;;;;;;1999.90;999.90;;;16.60;99.90;;;;;;5031564;28;20178;-43
2021/04/27 07:16:04;;;;;;;1999.90;999.90;;;16.60;99.90;;;;;;5032025;28;20166;-43
2021/04/27 07:18:31;;;;;;;1999.90;999.90;;;16.60;99.90;;;;;;5032190;28;20218;-43
2021/04/27 07:20:59;;;;;;;1999.90;999.90;;;16.60;99.90;;;;;;5031690;28;20676;-47
2021/04/27 07:23:26;;;;;;;1999.90;999.90;;;16.70;99.90;;;;;;5031969;28;20174;-43
2021/04/27 07:25:53;;;;;;;1999.90;999.90;;;16.70;99.90;;;;;;5031862;28;20171;-44
2021/04/27 07:28:20;;;;;;;1999.90;999.90;;;16.70;99.90;;;;;;5031806;28;20198;-46
2021/04/27 07:30:47;;;;;;;1999.90;999.90;;;16.80;99.90;;;;;;5031816;28;20587;-39
2021/04/27 07:33:13;;;;;;;1999.90;999.90;;;16.80;99.90;;;;;;5032261;28;20660;-44
2021/04/27 07:35:40;;;;;;;1999.90;999.90;;;16.80;99.90;;;;;;5031746;28;20273;-45
2021/04/27 07:38:07;;;;;;;1999.90;999.90;;;16.80;99.90;;;;;;5031871;28;20635;-44
2021/04/27 07:40:36;;;;;;;1999.90;999.90;;;16.80;99.90;;;;;;5031957;28;20177;-42
2021/04/27 07:43:04;;;;;;;1999.90;999.90;;;16.90;99.90;;;;;;5031866;28;20178;-43
2021/04/27 07:45:33;;;;;;;1999.90;999.90;;;16.90;99.90;;;;;;5031700;28;20670;-45
2021/04/27 07:48:06;;;;;;;1999.90;999.90;;;16.90;99.90;;;;;;5031595;28;20198;-43
2021/04/27 07:50:34;;;;;;;1999.90;999.90;;;17.00;99.90;;;;;;5031194;28;20174;-42
2021/04/27 07:53:01;;;;;;;1999.90;999.90;;;17.10;99.90;;;;;;5031438;28;20170;-43
2021/04/27 07:55:28;;;;;;;1999.90;999.90;;;17.00;99.90;;;;;;5031348;28;20260;-47
2021/04/27 07:57:55;;;;;;;1999.90;999.90;;;17.10;99.90;;;;;;5031408;28;20265;-43
2021/04/27 08:00:22;;;;;;;1999.90;999.90;;;17.10;99.90;;;;;;5031255;28;20172;-46
2021/04/27 08:02:51;;;;;;;1999.90;999.90;;;17.20;99.90;;;;;;5030036;28;20170;-44
2021/04/27 08:05:19;;;;;;;1999.90;999.90;;;17.30;99.90;;;;;;5031235;28;20583;-44
2021/04/27 08:07:47;;;;;;;1999.90;999.90;;;17.40;99.90;;;;;;5031248;28;20194;-46
2021/04/27 08:10:14;;;;;;;1999.90;999.90;;;17.50;99.90;;;;;;5031290;28;20222;-44
2021/04/27 08:12:46;;;;;;;1999.90;999.90;;;17.60;99.90;;;;;;5031210;28;20162;-41
2021/04/27 08:15:17;;;;;;;1999.90;999.90;;;17.60;99.90;;;;;;5031204;28;20222;-44
2021/04/27 08:17:44;;;;;;;1999.90;999.90;;;17.70;99.90;;;;;;5031258;28;20210;-45
2021/04/27 08:20:14;;;;;;;1999.90;999.90;;;17.80;99.90;;;;;;5031515;28;20303;-44
2021/04/27 08:22:43;;;;;;;1999.90;999.90;;;17.90;99.90;;;;;;5030120;28;20593;-43
2021/04/27 08:25:10;;;;;;;1999.90;999.90;;;17.90;99.90;;;;;;5030564;28;20162;-45
2021/04/27 08:27:37;;;;;;;1999.90;999.90;;;18.10;99.90;;;;;;5030951;28;20305;-46
2021/04/27 08:30:05;;;;;;;1999.90;999.90;;;18.10;99.90;;;;;;5031135;28;20170;-45
2021/04/27 08:32:32;;;;;;;1999.90;999.90;;;18.20;99.90;;;;;;5031031;28;20166;-47
2021/04/27 08:34:59;;;;;;;1999.90;999.90;;;18.30;99.90;;;;;;5030886;28;20527;-46
2021/04/27 08:37:26;;;;;;;1999.90;999.90;;;18.40;99.90;;;;;;5030835;28;20173;-44
2021/04/27 08:39:53;;;;;;;1999.90;999.90;;;18.60;99.90;;;;;;5030811;28;20169;-44
2021/04/27 08:42:20;;;;;;;1999.90;999.90;;;18.70;99.90;;;;;;5030760;28;20172;-44
2021/04/27 08:44:47;;;;;;;1999.90;999.90;;;18.70;99.90;;;;;;5030787;28;20213;-43
2021/04/27 08:47:14;;;;;;;1999.90;999.90;;;18.80;99.90;;;;;;5030610;28;20213;-39
2021/04/27 09:00:22;;;;;;;1999.90;999.90;;;18.90;99.90;;;;;;5070019;28;20490;-40
2021/04/27 09:02:58;;;;;;;1999.90;999.90;;;19.40;99.90;;;;;;5069853;28;20203;-40
2021/04/27 09:05:27;;;;;;;1999.90;999.90;;;19.50;99.90;;;;;;5069764;28;20200;-42
2021/04/27 09:07:55;;;;;;;1999.90;999.90;;;19.40;99.90;;;;;;5069568;28;20218;-40
2021/04/27 09:10:28;;;;;;;1999.90;999.90;;;19.50;99.90;;;;;;5069730;28;20570;-40
2021/04/27 09:13:11;;;;;;;1999.90;999.90;;;19.50;99.90;;;;;;5069541;28;20160;-42
2021/04/27 09:15:50;;;;;;;1999.90;999.90;;;19.60;99.90;;;;;;5069536;28;20680;-40
2021/04/27 09:18:32;;;;;;;1999.90;999.90;;;19.60;99.90;;;;;;5069446;28;20245;-40
2021/04/27 09:21:10;;;;;;;1999.90;999.90;;;19.60;99.90;;;;;;5069698;28;20654;-43
2021/04/27 09:23:42;;;;;;;1999.90;999.90;;;19.60;99.90;;;;;;5069523;28;20161;-41
2021/04/27 09:26:18;;;;;;;1999.90;999.90;;;19.60;99.90;;;;;;5069359;28;20159;-42
2021/04/27 09:28:47;;;;;;;1999.90;999.90;;;19.60;99.90;;;;;;5069259;28;20196;-40
2021/04/27 09:31:47;;;;;;;1999.90;999.90;;;19.60;99.90;;;;;;5069246;28;20172;-49
2021/04/27 09:34:25;;;;;;;1999.90;999.90;;;19.50;99.90;;;;;;5061771;28;20553;-45
2021/04/27 09:37:00;;;;;;;1999.90;999.90;;;19.40;99.90;;;;;;5069335;28;20161;-41
2021/04/27 09:39:36;;;;;;;1999.90;999.90;;;19.30;99.90;;;;;;5069021;28;20148;-45
2021/04/27 09:42:13;;;;;;;1999.90;999.90;;;19.30;99.90;;;;;;5069079;28;20179;-43
2021/04/27 09:44:54;;;;;;;1999.90;999.90;;;19.20;99.90;;;;;;5068576;28;20149;-42
2021/04/27 09:47:31;;;;;;;1999.90;999.90;;;19.10;99.90;;;;;;5068748;28;20160;-41
2021/04/27 09:50:07;;;;;;;1999.90;999.90;;;19.00;99.90;;;;;;5067464;28;20188;-41
2021/04/27 09:52:45;;;;;;;1999.90;999.90;;;18.90;99.90;;;;;;5069006;28;20161;-41
2021/04/27 09:55:21;;;;;;;1999.90;999.90;;;18.90;99.90;;;;;;5068579;28;20582;-41
2021/04/27 09:57:53;;;;;;;1999.90;999.90;;;18.90;99.90;;;;;;5068685;28;20686;-41
2021/04/27 10:00:35;;;;;;;1999.90;999.90;;;18.80;99.90;;;;;;5060252;28;20243;-40
2021/04/27 10:03:12;;;;;;;1999.90;999.90;;;18.80;99.90;;;;;;5055693;28;20695;-41
2021/04/27 10:05:45;;;;;;;1999.90;999.90;;;18.70;99.90;;;;;;5055490;28;20157;-40
2021/04/27 10:08:13;;;;;;;1999.90;999.90;;;18.60;99.90;;;;;;5055294;28;20193;-41
2021/04/27 10:10:41;;;;;;;1999.90;999.90;;;18.60;99.90;;;;;;5055327;28;20181;-40
2021/04/27 10:13:10;;;;;;;1999.90;999.90;;;18.70;99.90;;;;;;5055637;28;20207;-42
2021/04/27 10:15:38;;;;;;;1999.90;999.90;;;18.90;99.90;;;;;;5055392;28;20177;-44
2021/04/27 10:18:07;;;;;;;1999.90;999.90;;;18.90;99.90;;;;;;5055295;28;20674;-41
2021/04/27 10:20:34;;;;;;;1999.90;999.90;;;19.10;99.90;;;;;;5055240;28;20170;-42
2021/04/27 10:23:08;;;;;;;1999.90;999.90;;;19.10;99.90;;;;;;5055111;28;20263;-41
2021/04/27 10:25:36;;;;;;;1999.90;999.90;;;19.30;99.90;;;;;;5055270;28;20168;-43
2021/04/27 10:28:05;;;;;;;1999.90;999.90;;;19.40;99.90;;;;;;5055015;28;20288;-44
2021/04/27 10:30:36;;;;;;;1999.90;999.90;;;19.60;99.90;;;;;;5054889;28;20203;-43
2021/04/27 10:33:03;;;;;;;1999.90;999.90;;;19.90;99.90;;;;;;5054972;28;20574;-42
2021/04/27 10:35:35;;;;;;;1999.90;999.90;;;20.10;99.90;;;;;;5054990;28;20169;-40
2021/04/27 10:38:13;;;;;;;1999.90;999.90;;;20.30;99.90;;;;;;5054825;28;20188;-42
2021/04/27 10:40:46;;;;;;;1999.90;999.90;;;20.20;99.90;;;;;;5054827;28;20204;-41
2021/04/27 10:43:34;;;;;;;1999.90;999.90;;;20.40;99.90;;;;;;5054871;28;20150;-41
2021/04/27 10:46:05;;;;;;;1999.90;999.90;;;20.80;99.90;;;;;;5054912;28;21278;-41
2021/04/27 10:48:52;;;;;;;1999.90;999.90;;;21.00;99.90;;;;;;5054612;28;20694;-41
2021/04/27 10:51:22;;;;;;;1999.90;999.90;;;21.20;99.90;;;;;;5054411;28;20196;-44
2021/04/27 10:54:10;;;;;;;1999.90;999.90;;;21.30;99.90;;;;;;5054423;28;20200;-44
2021/04/27 10:56:44;;;;;;;1999.90;999.90;;;21.40;99.90;;;;;;5054685;28;20171;-47
2021/04/27 10:59:23;;;;;;;1999.90;999.90;;;21.40;99.90;;;;;;5054436;28;20239;-44
2021/04/27 11:02:13;;;;;;;1999.90;999.90;;;21.60;98.50;;;;;;5054402;28;20235;-54
2021/04/27 11:04:43;;;;;;;1999.90;999.90;;;21.50;99.20;;;;;;5054554;28;20238;-49
2021/04/27 11:07:22;;;;;;;1999.90;999.90;;;21.60;98.30;;;;;;5054310;28;20161;-48
2021/04/27 11:10:04;;;;;;;1999.90;999.90;;;21.60;97.70;;;;;;5054076;28;20547;-43
2021/04/27 11:12:32;;;;;;;1999.90;999.90;;;21.70;97.60;;;;;;5053271;28;20185;-47
2021/04/27 11:15:07;;;;;;;1999.90;999.90;;;21.70;96.70;;;;;;5054243;28;20170;-43
2021/04/27 11:17:39;;;;;;;1999.90;999.90;;;21.70;98.10;;;;;;5054149;28;20168;-43
2021/04/27 11:20:10;;;;;;;1999.90;999.90;;;22.00;96.20;;;;;;5053928;28;20215;-42
2021/04/27 11:22:50;;;;;;;1999.90;999.90;;;22.30;96.10;;;;;;5053888;28;20165;-42
2021/04/27 11:25:37;;;;;;;1999.90;999.90;;;22.60;96.30;;;;;;5053711;28;20164;-41
2021/04/27 11:28:14;;;;;;;1999.90;999.90;;;23.10;93.60;;;;;;5053738;28;20343;-41
2021/04/27 11:30:41;;;;;;;1999.90;999.90;;;23.30;91.60;;;;;;5054003;28;20153;-41
2021/04/27 11:33:08;;;;;;;1999.90;999.90;;;23.40;91.00;;;;;;5053835;28;20169;-42
2021/04/27 11:35:42;;;;;;;1999.90;999.90;;;23.20;90.40;;;;;;5053704;28;20662;-42
2021/04/27 11:38:09;;;;;;;1999.90;999.90;;;23.10;91.70;;;;;;5053828;28;20163;-42
2021/04/27 11:40:39;;;;;;;1999.90;999.90;;;23.00;91.70;;;;;;5053938;28;20219;-41
2021/04/27 11:43:12;;;;;;;1999.90;999.90;;;22.80;92.10;;;;;;5053492;28;20180;-46
2021/04/27 11:45:50;;;;;;;1999.90;999.90;;;22.60;92.80;;;;;;5053544;28;20177;-42
2021/04/27 11:48:23;;;;;;;1999.90;999.90;;;22.60;91.90;;;;;;5053739;28;20541;-41
2021/04/27 11:50:51;;;;;;;1999.90;999.90;;;22.50;93.50;;;;;;5053477;28;20162;-41
2021/04/27 11:53:25;;;;;;;1999.90;999.90;;;22.50;91.90;;;;;;5053543;28;20615;-42
2021/04/27 11:55:57;;;;;;;1999.90;999.90;;;22.40;93.90;;;;;;5053353;28;20157;-45
2021/04/27 11:58:39;;;;;;;1999.90;999.90;;;22.20;95.60;;;;;;5053120;28;20751;-41
2021/04/27 12:01:08;;;;;;;1999.90;999.90;;;21.70;94.60;;;;;;5053284;28;20181;-41
2021/04/27 12:03:47;;;;;;;1999.90;999.90;;;21.50;96.70;;;;;;5053259;28;20256;-40
2021/04/27 12:06:18;;;;;;;1999.90;999.90;;;21.30;96.80;;;;;;5053214;28;20622;-40
2021/04/27 12:08:48;;;;;;;1999.90;999.90;;;21.30;96.90;;;;;;5053096;28;20643;-40
2021/04/27 12:11:32;;;;;;;1999.90;999.90;;;21.10;96.60;;;;;;5053017;28;20264;-40
2021/04/27 12:14:10;;;;;;;1999.90;999.90;;;20.90;97.10;;;;;;5053082;28;20161;-41
2021/04/27 12:16:39;;;;;;;1999.90;999.90;;;21.00;97.60;;;;;;5053193;28;20160;-40
2021/04/27 12:19:11;;;;;;;1999.90;999.90;;;21.20;96.00;;;;;;5053122;28;20624;-40
2021/04/27 12:21:43;;;;;;;1999.90;999.90;;;21.40;95.20;;;;;;5053118;28;20157;-40